createdAt,value
2019-02-05T00:00:34.559Z,24.03
2019-02-05T00:01:34.511Z,23.65
2019-02-05T00:02:34.463Z,23.65
2019-02-05T00:03:34.416Z,23.35
2019-02-05T00:04:34.370Z,23.55
2019-02-05T00:05:34.322Z,23.45
2019-02-05T00:06:34.274Z,24.13
2019-02-05T00:07:34.228Z,24.13
2019-02-05T00:08:34.182Z,23.83
2019-02-05T00:09:34.133Z,24.13
2019-02-05T00:10:34.086Z,23.85
2019-02-05T00:11:34.039Z,23.65
2019-02-05T00:12:33.992Z,23.55
2019-02-05T00:13:33.946Z,23.74
2019-02-05T00:14:33.898Z,23.55
2019-02-05T00:15:33.851Z,24.22
2019-02-05T00:16:33.805Z,23.83
2019-02-05T00:17:33.756Z,23.45
2019-02-05T00:18:33.711Z,23.83
2019-02-05T00:19:33.663Z,24.13
2019-02-05T00:20:33.616Z,23.74
2019-02-05T00:21:33.568Z,23.55
2019-02-05T00:22:33.522Z,23.55
2019-02-05T00:23:33.475Z,23.83
2019-02-05T00:24:33.428Z,23.65
2019-02-05T00:25:33.380Z,23.75
2019-02-05T00:26:33.333Z,23.83
2019-02-05T00:27:33.286Z,23.55
2019-02-05T00:28:33.242Z,23.65
2019-02-05T00:29:33.192Z,23.65
2019-02-05T00:30:33.147Z,23.55
2019-02-05T00:31:33.098Z,23.55
2019-02-05T00:32:33.051Z,23.74
2019-02-05T00:33:33.003Z,23.36
2019-02-05T00:34:32.955Z,23.74
2019-02-05T00:35:32.909Z,23.65
2019-02-05T00:36:32.863Z,23.83
2019-02-05T00:37:32.814Z,23.74
2019-02-05T00:38:32.771Z,23.83
2019-02-05T00:39:33.038Z,23.45
2019-02-05T00:40:32.674Z,23.45
2019-02-05T00:41:32.625Z,23.07
2019-02-05T00:42:32.580Z,23.16
2019-02-05T00:43:32.533Z,23.07
2019-02-05T00:44:32.486Z,23.27
2019-02-05T00:45:32.444Z,23.16
2019-02-05T00:46:32.392Z,23.35
2019-02-05T00:47:32.362Z,23.35
2019-02-05T00:48:32.298Z,23.45
2019-02-05T00:49:32.253Z,23.25
2019-02-05T00:50:32.240Z,23.55
2019-02-05T00:51:32.157Z,23.56
2019-02-05T00:52:32.110Z,23.55
2019-02-05T00:53:32.062Z,23.16
2019-02-05T00:54:32.015Z,23.45
2019-02-05T00:55:32.018Z,23.17
2019-02-05T00:56:31.921Z,23.08
2019-02-05T00:57:31.972Z,23.46
2019-02-05T00:58:31.826Z,23.74
2019-02-05T00:59:31.787Z,23.55
2019-02-05T01:00:31.734Z,23.45
2019-02-05T01:01:31.692Z,23.75
2019-02-05T01:02:31.638Z,23.65
2019-02-05T01:03:31.592Z,23.08
2019-02-05T01:04:31.545Z,23.08
2019-02-05T01:05:31.497Z,23.36
2019-02-05T01:06:31.450Z,23.65
2019-02-05T01:07:31.403Z,23.83
2019-02-05T01:08:31.356Z,22.98
2019-02-05T01:09:31.309Z,23.08
2019-02-05T01:10:31.262Z,23.56
2019-02-05T01:11:31.215Z,23.08
2019-02-05T01:12:31.168Z,23.16
2019-02-05T01:13:31.120Z,23.17
2019-02-05T01:14:31.078Z,23.17
2019-02-05T01:15:31.027Z,23.17
2019-02-05T01:16:30.980Z,23.46
2019-02-05T01:17:30.983Z,23.08
2019-02-05T01:18:30.886Z,23.56
2019-02-05T01:19:30.840Z,23.08
2019-02-05T01:20:30.791Z,23.46
2019-02-05T01:21:30.744Z,23.75
2019-02-05T01:22:30.697Z,23.65
2019-02-05T01:23:30.650Z,23.65
2019-02-05T01:24:30.607Z,23.56
2019-02-05T01:25:30.606Z,23.94
2019-02-05T01:26:31.064Z,23.08
2019-02-05T01:27:30.470Z,23.16
2019-02-05T01:28:30.415Z,23.56
2019-02-05T01:29:30.367Z,23.36
2019-02-05T01:30:30.321Z,23.17
2019-02-05T01:31:30.274Z,23.08
2019-02-05T01:32:30.228Z,22.98
2019-02-05T01:33:30.179Z,23.08
2019-02-05T01:34:30.132Z,23.08
2019-02-05T01:35:30.085Z,23.46
2019-02-05T01:36:30.040Z,23.25
2019-02-05T01:37:30.040Z,23.08
2019-02-05T01:38:29.994Z,23.17
2019-02-05T01:39:29.900Z,23.17
2019-02-05T01:40:29.850Z,23.17
2019-02-05T01:41:29.803Z,23.17
2019-02-05T01:42:29.756Z,23.36
2019-02-05T01:43:29.709Z,23.17
2019-02-05T01:44:29.663Z,23.27
2019-02-05T01:45:29.615Z,23.25
2019-02-05T01:46:29.568Z,23.17
2019-02-05T01:47:29.521Z,23.17
2019-02-05T01:48:29.478Z,23.27
2019-02-05T01:49:29.425Z,23.08
2019-02-05T01:50:29.379Z,23.36
2019-02-05T01:51:29.333Z,22.98
2019-02-05T01:52:29.285Z,23.08
2019-02-05T01:53:29.238Z,23.36
2019-02-05T01:54:29.191Z,23.27
2019-02-05T01:55:29.145Z,23.17
2019-02-05T01:56:40.196Z,23.27
2019-02-05T01:57:29.050Z,23.27
2019-02-05T01:58:29.004Z,23.27
2019-02-05T01:59:28.957Z,23.08
2019-02-05T02:00:30.733Z,22.98
2019-02-05T02:01:29.180Z,23.27
2019-02-05T02:02:28.815Z,23.56
2019-02-05T02:03:28.768Z,23.46
2019-02-05T02:04:28.722Z,22.98
2019-02-05T02:05:28.675Z,23.17
2019-02-05T02:06:28.626Z,23.08
2019-02-05T02:07:28.580Z,23.27
2019-02-05T02:08:28.533Z,23.08
2019-02-05T02:09:28.486Z,23.27
2019-02-05T02:10:28.442Z,23.08
2019-02-05T02:11:28.392Z,23.08
2019-02-05T02:12:28.345Z,22.98
2019-02-05T02:13:28.298Z,23.17
2019-02-05T02:14:28.251Z,22.50
2019-02-05T02:15:28.206Z,22.88
2019-02-05T02:16:28.157Z,22.78
2019-02-05T02:17:28.110Z,22.88
2019-02-05T02:18:28.064Z,22.78
2019-02-05T02:19:28.015Z,22.78
2019-02-05T02:20:27.995Z,22.69
2019-02-05T02:21:27.922Z,22.78
2019-02-05T02:22:27.874Z,22.30
2019-02-05T02:23:27.828Z,22.50
2019-02-05T02:24:27.782Z,22.69
2019-02-05T02:25:27.734Z,23.08
2019-02-05T02:26:27.686Z,22.98
2019-02-05T02:27:27.640Z,22.50
2019-02-05T02:28:27.593Z,22.50
2019-02-05T02:29:27.546Z,22.59
2019-02-05T02:30:27.500Z,23.17
2019-02-05T02:31:27.451Z,22.69
2019-02-05T02:32:27.407Z,22.50
2019-02-05T02:33:27.359Z,22.40
2019-02-05T02:34:27.311Z,22.59
2019-02-05T02:35:27.361Z,22.88
2019-02-05T02:36:27.219Z,22.50
2019-02-05T02:37:27.169Z,22.98
2019-02-05T02:38:27.123Z,22.69
2019-02-05T02:39:27.081Z,22.78
2019-02-05T02:40:27.036Z,22.69
2019-02-05T02:41:26.984Z,22.78
2019-02-05T02:42:26.936Z,22.50
2019-02-05T02:43:26.888Z,22.50
2019-02-05T02:44:26.840Z,22.50
2019-02-05T02:45:26.801Z,22.78
2019-02-05T02:46:26.747Z,22.88
2019-02-05T02:47:27.806Z,22.98
2019-02-05T02:48:26.654Z,22.88
2019-02-05T02:49:26.605Z,22.78
2019-02-05T02:50:26.559Z,22.98
2019-02-05T02:51:26.513Z,22.98
2019-02-05T02:52:26.467Z,22.78
2019-02-05T02:53:26.419Z,22.88
2019-02-05T02:54:26.373Z,22.40
2019-02-05T02:55:26.328Z,22.88
2019-02-05T02:56:26.278Z,22.40
2019-02-05T02:57:26.232Z,22.40
2019-02-05T02:58:26.185Z,22.50
2019-02-05T02:59:26.137Z,22.30
2019-02-05T03:00:26.090Z,22.30
2019-02-05T03:01:26.042Z,22.11
2019-02-05T03:02:25.995Z,22.11
2019-02-05T03:03:26.000Z,22.98
2019-02-05T03:04:25.903Z,22.50
2019-02-05T03:05:25.854Z,22.98
2019-02-05T03:06:25.812Z,22.78
2019-02-05T03:07:25.761Z,22.88
2019-02-05T03:08:25.715Z,22.69
2019-02-05T03:09:25.666Z,22.11
2019-02-05T03:10:25.620Z,22.30
2019-02-05T03:11:25.715Z,22.69
2019-02-05T03:12:25.528Z,22.40
2019-02-05T03:13:25.479Z,22.30
2019-02-05T03:14:25.565Z,22.78
2019-02-05T03:15:25.386Z,22.88
2019-02-05T03:16:25.338Z,22.88
2019-02-05T03:17:25.291Z,22.69
2019-02-05T03:18:25.246Z,22.59
2019-02-05T03:19:25.196Z,22.78
2019-02-05T03:20:25.151Z,22.40
2019-02-05T03:21:25.103Z,21.92
2019-02-05T03:22:25.056Z,22.11
2019-02-05T03:23:25.010Z,22.11
2019-02-05T03:24:24.963Z,22.11
2019-02-05T03:25:24.965Z,22.11
2019-02-05T03:26:24.868Z,22.20
2019-02-05T03:27:24.823Z,22.30
2019-02-05T03:28:24.776Z,22.11
2019-02-05T03:29:24.729Z,22.20
2019-02-05T03:30:25.050Z,21.82
2019-02-05T03:31:24.637Z,22.20
2019-02-05T03:32:24.589Z,21.92
2019-02-05T03:33:24.541Z,22.11
2019-02-05T03:34:24.495Z,22.20
2019-02-05T03:35:24.459Z,22.11
2019-02-05T03:36:24.441Z,22.11
2019-02-05T03:37:24.354Z,22.30
2019-02-05T03:38:24.305Z,22.02
2019-02-05T03:39:24.259Z,22.02
2019-02-05T03:40:24.212Z,22.02
2019-02-05T03:41:24.165Z,22.11
2019-02-05T03:42:24.125Z,22.11
2019-02-05T03:43:24.071Z,22.20
2019-02-05T03:44:24.024Z,22.20
2019-02-05T03:45:23.977Z,22.11
2019-02-05T03:46:23.930Z,22.50
2019-02-05T03:47:23.933Z,22.02
2019-02-05T03:48:23.837Z,22.11
2019-02-05T03:49:23.789Z,22.02
2019-02-05T03:50:23.747Z,22.20
2019-02-05T03:51:23.695Z,22.20
2019-02-05T03:52:23.649Z,22.11
2019-02-05T03:53:23.601Z,22.20
2019-02-05T03:54:23.554Z,22.11
2019-02-05T03:55:23.509Z,22.11
2019-02-05T03:56:23.462Z,22.11
2019-02-05T03:57:31.116Z,22.20
2019-02-05T03:58:23.366Z,22.30
2019-02-05T03:59:23.320Z,22.30
2019-02-05T04:00:23.273Z,22.11
2019-02-05T04:01:23.226Z,22.11
2019-02-05T04:02:23.180Z,22.20
2019-02-05T04:03:23.132Z,22.30
2019-02-05T04:04:23.086Z,22.11
2019-02-05T04:05:23.038Z,22.50
2019-02-05T04:06:22.990Z,22.11
2019-02-05T04:07:22.994Z,22.02
2019-02-05T04:08:22.897Z,22.30
2019-02-05T04:09:22.924Z,22.20
2019-02-05T04:10:22.804Z,22.02
2019-02-05T04:11:22.757Z,22.30
2019-02-05T04:12:22.710Z,22.20
2019-02-05T04:13:22.665Z,22.02
2019-02-05T04:14:22.615Z,22.02
2019-02-05T04:15:22.570Z,22.20
2019-02-05T04:16:22.523Z,22.02
2019-02-05T04:17:22.479Z,22.11
2019-02-05T04:18:22.427Z,22.11
2019-02-05T04:19:22.382Z,22.02
2019-02-05T04:20:22.334Z,22.50
2019-02-05T04:21:22.287Z,22.30
2019-02-05T04:22:22.241Z,22.20
2019-02-05T04:23:22.195Z,22.50
2019-02-05T04:24:22.147Z,22.40
2019-02-05T04:25:22.099Z,22.11
2019-02-05T04:26:22.053Z,22.20
2019-02-05T04:27:22.058Z,21.72
2019-02-05T04:28:21.959Z,22.11
2019-02-05T04:29:21.912Z,22.02
2019-02-05T04:30:21.865Z,21.82
2019-02-05T04:31:21.819Z,21.92
2019-02-05T04:32:21.772Z,21.92
2019-02-05T04:33:21.727Z,21.92
2019-02-05T04:34:21.688Z,22.11
2019-02-05T04:35:21.631Z,22.20
2019-02-05T04:36:21.586Z,22.02
2019-02-05T04:37:21.539Z,22.11
2019-02-05T04:38:21.489Z,22.11
2019-02-05T04:39:21.478Z,22.02
2019-02-05T04:40:21.396Z,22.20
2019-02-05T04:41:21.359Z,22.02
2019-02-05T04:42:21.310Z,22.11
2019-02-05T04:43:21.261Z,22.11
2019-02-05T04:44:21.213Z,22.11
2019-02-05T04:45:33.450Z,22.11
2019-02-05T04:46:21.116Z,22.30
2019-02-05T04:47:21.067Z,22.22
2019-02-05T04:48:21.022Z,22.22
2019-02-05T04:49:20.974Z,22.11
2019-02-05T04:50:20.929Z,22.02
2019-02-05T04:51:20.881Z,22.22
2019-02-05T04:52:20.834Z,22.40
2019-02-05T04:53:20.787Z,22.59
2019-02-05T04:54:20.740Z,22.50
2019-02-05T04:55:20.693Z,22.50
2019-02-05T04:56:20.648Z,22.50
2019-02-05T04:57:20.599Z,22.31
2019-02-05T04:58:20.552Z,22.30
2019-02-05T04:59:20.505Z,22.12
2019-02-05T05:00:20.459Z,22.20
2019-02-05T05:01:20.412Z,22.11
2019-02-05T05:02:20.371Z,22.40
2019-02-05T05:03:20.321Z,22.40
2019-02-05T05:04:20.274Z,22.22
2019-02-05T05:05:20.225Z,22.20
2019-02-05T05:06:20.178Z,22.12
2019-02-05T05:07:20.131Z,22.02
2019-02-05T05:08:20.085Z,22.12
2019-02-05T05:09:20.040Z,22.22
2019-02-05T05:10:19.989Z,22.02
2019-02-05T05:11:19.943Z,22.11
2019-02-05T05:12:19.903Z,22.02
2019-02-05T05:13:19.921Z,22.02
2019-02-05T05:14:19.803Z,22.02
2019-02-05T05:15:19.756Z,22.11
2019-02-05T05:16:19.709Z,22.11
2019-02-05T05:17:19.661Z,22.40
2019-02-05T05:18:19.615Z,22.20
2019-02-05T05:19:19.568Z,22.59
2019-02-05T05:20:19.548Z,22.22
2019-02-05T05:21:19.480Z,22.50
2019-02-05T05:22:19.428Z,22.59
2019-02-05T05:23:19.380Z,22.20
2019-02-05T05:24:19.335Z,22.30
2019-02-05T05:25:19.287Z,22.40
2019-02-05T05:26:19.238Z,22.22
2019-02-05T05:27:19.193Z,22.22
2019-02-05T05:28:19.146Z,22.12
2019-02-05T05:29:19.098Z,22.31
2019-02-05T05:30:19.056Z,22.12
2019-02-05T05:31:19.006Z,22.40
2019-02-05T05:32:18.958Z,22.41
2019-02-05T05:33:18.911Z,22.31
2019-02-05T05:34:18.868Z,22.99
2019-02-05T05:35:18.818Z,22.89
2019-02-05T05:36:18.772Z,22.99
2019-02-05T05:37:18.722Z,22.89
2019-02-05T05:38:18.676Z,22.60
2019-02-05T05:39:18.630Z,22.80
2019-02-05T05:40:18.583Z,22.70
2019-02-05T05:41:18.537Z,22.70
2019-02-05T05:42:18.489Z,22.80
2019-02-05T05:43:18.443Z,22.80
2019-02-05T05:44:18.396Z,22.70
2019-02-05T05:45:18.349Z,22.70
2019-02-05T05:46:18.301Z,22.50
2019-02-05T05:47:18.255Z,22.50
2019-02-05T05:48:18.209Z,22.80
2019-02-05T05:49:18.161Z,22.99
2019-02-05T05:50:21.220Z,22.50
2019-02-05T05:51:18.068Z,22.70
2019-02-05T05:52:18.021Z,22.89
2019-02-05T05:53:17.978Z,22.89
2019-02-05T05:54:17.926Z,22.50
2019-02-05T05:55:17.880Z,22.80
2019-02-05T05:56:17.833Z,22.89
2019-02-05T05:57:18.814Z,22.99
2019-02-05T05:58:23.172Z,22.80
2019-02-05T05:59:17.706Z,22.80
2019-02-05T06:00:17.647Z,22.80
2019-02-05T06:01:17.598Z,22.70
2019-02-05T06:02:17.632Z,22.80
2019-02-05T06:03:17.506Z,22.99
2019-02-05T06:04:17.459Z,22.89
2019-02-05T06:05:17.411Z,22.89
2019-02-05T06:06:17.367Z,22.70
2019-02-05T06:07:17.318Z,22.50
2019-02-05T06:08:17.273Z,22.50
2019-02-05T06:09:17.223Z,22.80
2019-02-05T06:10:17.185Z,22.60
2019-02-05T06:11:17.130Z,22.50
2019-02-05T06:12:17.083Z,22.50
2019-02-05T06:13:17.036Z,22.50
2019-02-05T06:14:16.989Z,22.60
2019-02-05T06:15:16.943Z,22.60
2019-02-05T06:16:16.896Z,22.50
2019-02-05T06:17:16.849Z,22.60
2019-02-05T06:18:16.803Z,22.70
2019-02-05T06:19:16.756Z,22.60
2019-02-05T06:20:16.709Z,22.60
2019-02-05T06:21:16.661Z,22.50
2019-02-05T06:22:16.614Z,22.60
2019-02-05T06:23:16.568Z,22.60
2019-02-05T06:24:16.522Z,22.60
2019-02-05T06:25:16.807Z,22.60
2019-02-05T06:26:16.429Z,22.60
2019-02-05T06:27:16.381Z,22.50
2019-02-05T06:28:16.334Z,22.70
2019-02-05T06:29:16.286Z,22.70
2019-02-05T06:30:16.243Z,22.60
2019-02-05T06:31:16.205Z,22.80
2019-02-05T06:32:16.149Z,22.60
2019-02-05T06:33:16.103Z,22.80
2019-02-05T06:34:16.052Z,22.60
2019-02-05T06:35:16.010Z,22.89
2019-02-05T06:36:15.960Z,22.99
2019-02-05T06:37:15.914Z,22.50
2019-02-05T06:38:15.865Z,22.50
2019-02-05T06:39:15.819Z,22.41
2019-02-05T06:40:15.772Z,22.99
2019-02-05T06:41:15.725Z,22.89
2019-02-05T06:42:15.678Z,22.50
2019-02-05T06:43:15.631Z,22.50
2019-02-05T06:44:15.584Z,22.50
2019-02-05T06:45:15.538Z,22.50
2019-02-05T06:46:15.491Z,22.41
2019-02-05T06:47:15.444Z,22.99
2019-02-05T06:48:15.403Z,22.50
2019-02-05T06:49:15.359Z,22.31
2019-02-05T06:50:15.306Z,22.99
2019-02-05T06:51:15.257Z,22.99
2019-02-05T06:52:15.210Z,22.99
2019-02-05T06:53:15.162Z,22.99
2019-02-05T06:54:15.116Z,22.31
2019-02-05T06:55:15.069Z,22.50
2019-02-05T06:56:15.026Z,22.50
2019-02-05T06:57:14.976Z,22.41
2019-02-05T06:58:15.033Z,22.60
2019-02-05T06:59:14.882Z,22.60
2019-02-05T07:00:14.836Z,22.50
2019-02-05T07:01:15.105Z,22.50
2019-02-05T07:02:14.741Z,22.41
2019-02-05T07:03:14.736Z,22.50
2019-02-05T07:04:14.647Z,22.41
2019-02-05T07:05:14.602Z,22.50
2019-02-05T07:06:14.554Z,22.50
2019-02-05T07:07:14.509Z,22.41
2019-02-05T07:08:14.461Z,22.50
2019-02-05T07:09:14.413Z,22.99
2019-02-05T07:10:14.368Z,22.41
2019-02-05T07:11:14.319Z,22.41
2019-02-05T07:12:14.275Z,22.50
2019-02-05T07:13:14.226Z,22.22
2019-02-05T07:14:14.180Z,22.31
2019-02-05T07:15:14.137Z,22.22
2019-02-05T07:16:14.085Z,22.22
2019-02-05T07:17:14.039Z,22.12
2019-02-05T07:18:13.992Z,22.31
2019-02-05T07:19:13.945Z,22.12
2019-02-05T07:20:13.899Z,22.02
2019-02-05T07:21:13.850Z,22.41
2019-02-05T07:22:13.805Z,22.50
2019-02-05T07:23:13.759Z,22.60
2019-02-05T07:24:13.712Z,22.70
2019-02-05T07:25:13.665Z,22.31
2019-02-05T07:26:13.623Z,22.80
2019-02-05T07:27:13.571Z,22.89
2019-02-05T07:28:13.525Z,22.99
2019-02-05T07:29:13.477Z,23.28
2019-02-05T07:30:13.430Z,23.28
2019-02-05T07:31:13.384Z,23.18
2019-02-05T07:32:13.337Z,23.18
2019-02-05T07:33:13.290Z,23.28
2019-02-05T07:34:13.244Z,23.17
2019-02-05T07:35:13.196Z,23.08
2019-02-05T07:36:13.153Z,23.08
2019-02-05T07:37:13.103Z,23.08
2019-02-05T07:38:13.056Z,23.17
2019-02-05T07:39:13.009Z,23.27
2019-02-05T07:40:13.021Z,22.98
2019-02-05T07:41:12.915Z,23.17
2019-02-05T07:42:12.867Z,23.36
2019-02-05T07:43:12.821Z,23.46
2019-02-05T07:44:12.774Z,23.27
2019-02-05T07:45:12.731Z,23.08
2019-02-05T07:46:12.680Z,23.17
2019-02-05T07:47:12.635Z,23.17
2019-02-05T07:48:12.588Z,23.65
2019-02-05T07:49:12.540Z,23.56
2019-02-05T07:50:15.418Z,23.56
2019-02-05T07:51:12.447Z,23.75
2019-02-05T07:52:12.399Z,23.94
2019-02-05T07:53:12.351Z,23.93
2019-02-05T07:54:12.305Z,23.75
2019-02-05T07:55:12.258Z,23.93
2019-02-05T07:56:12.965Z,23.74
2019-02-05T07:57:12.164Z,23.55
2019-02-05T07:58:12.117Z,23.55
2019-02-05T07:59:12.071Z,23.45
2019-02-05T08:00:12.023Z,23.45
2019-02-05T08:01:12.056Z,23.65
2019-02-05T08:02:11.929Z,23.45
2019-02-05T08:03:11.882Z,23.55
2019-02-05T08:04:11.835Z,23.45
2019-02-05T08:05:11.787Z,23.45
2019-02-05T08:06:11.742Z,23.65
2019-02-05T08:07:11.694Z,23.55
2019-02-05T08:08:11.648Z,23.55
2019-02-05T08:09:11.601Z,23.45
2019-02-05T08:10:11.553Z,23.54
2019-02-05T08:11:11.505Z,23.63
2019-02-05T08:12:11.459Z,23.65
2019-02-05T08:13:11.413Z,23.44
2019-02-05T08:14:11.366Z,23.74
2019-02-05T08:15:11.318Z,23.92
2019-02-05T08:16:11.272Z,23.72
2019-02-05T08:17:11.224Z,23.44
2019-02-05T08:18:11.179Z,23.63
2019-02-05T08:19:11.130Z,23.54
2019-02-05T08:20:11.090Z,23.44
2019-02-05T08:21:11.035Z,23.82
2019-02-05T08:22:10.989Z,24.02
2019-02-05T08:23:10.974Z,24.11
2019-02-05T08:24:10.894Z,24.11
2019-02-05T08:25:10.848Z,24.21
2019-02-05T08:26:10.800Z,23.92
2019-02-05T08:27:10.753Z,23.72
2019-02-05T08:28:10.706Z,24.21
2019-02-05T08:29:21.139Z,23.82
2019-02-05T08:30:10.611Z,23.82
2019-02-05T08:31:10.564Z,23.82
2019-02-05T08:32:10.517Z,23.72
2019-02-05T08:33:10.468Z,23.54
2019-02-05T08:34:10.422Z,23.72
2019-02-05T08:35:10.375Z,24.11
2019-02-05T08:36:10.328Z,23.82
2019-02-05T08:37:10.280Z,23.82
2019-02-05T08:38:10.234Z,24.02
2019-02-05T08:39:10.185Z,24.21
2019-02-05T08:40:10.144Z,24.21
2019-02-05T08:41:10.092Z,24.30
2019-02-05T08:42:10.046Z,24.49
2019-02-05T08:43:09.996Z,24.68
2019-02-05T08:44:09.950Z,24.68
2019-02-05T08:45:09.951Z,24.68
2019-02-05T08:46:09.855Z,24.87
2019-02-05T08:47:09.809Z,24.87
2019-02-05T08:48:09.764Z,24.58
2019-02-05T08:49:09.713Z,24.49
2019-02-05T08:50:09.668Z,24.58
2019-02-05T08:51:09.619Z,25.16
2019-02-05T08:52:09.575Z,24.68
2019-02-05T08:53:09.524Z,24.97
2019-02-05T08:54:09.477Z,25.26
2019-02-05T08:55:09.429Z,25.55
2019-02-05T08:56:09.385Z,25.64
2019-02-05T08:57:09.334Z,25.74
2019-02-05T08:58:09.286Z,25.64
2019-02-05T08:59:09.240Z,25.35
2019-02-05T09:00:09.200Z,25.93
2019-02-05T09:01:09.148Z,25.84
2019-02-05T09:02:09.097Z,25.74
2019-02-05T09:03:09.186Z,25.64
2019-02-05T09:04:09.004Z,25.93
2019-02-05T09:05:08.956Z,26.12
2019-02-05T09:06:08.958Z,25.93
2019-02-05T09:07:08.862Z,26.12
2019-02-05T09:08:08.840Z,26.42
2019-02-05T09:09:08.767Z,26.22
2019-02-05T09:10:08.720Z,26.32
2019-02-05T09:11:08.671Z,26.22
2019-02-05T09:12:08.624Z,26.12
2019-02-05T09:13:08.579Z,26.12
2019-02-05T09:14:11.052Z,26.40
2019-02-05T09:15:08.482Z,26.12
2019-02-05T09:16:08.436Z,26.12
2019-02-05T09:17:08.390Z,26.11
2019-02-05T09:18:08.339Z,26.11
2019-02-05T09:19:08.296Z,26.02
2019-02-05T09:20:08.246Z,26.11
2019-02-05T09:21:08.196Z,25.92
2019-02-05T09:22:08.154Z,25.92
2019-02-05T09:23:08.199Z,26.40
2019-02-05T09:24:08.055Z,26.31
2019-02-05T09:25:08.058Z,26.50
2019-02-05T09:26:07.959Z,26.79
2019-02-05T09:27:07.912Z,26.50
2019-02-05T09:28:07.872Z,26.31
2019-02-05T09:29:07.818Z,26.69
2019-02-05T09:30:07.770Z,26.31
2019-02-05T09:31:07.723Z,26.79
2019-02-05T09:32:07.675Z,26.89
2019-02-05T09:33:07.630Z,26.98
2019-02-05T09:34:07.581Z,27.27
2019-02-05T09:35:07.533Z,27.08
2019-02-05T09:36:07.486Z,27.46
2019-02-05T09:37:07.438Z,27.37
2019-02-05T09:38:07.391Z,27.08
2019-02-05T09:39:07.342Z,27.08
2019-02-05T09:40:07.295Z,27.17
2019-02-05T09:41:07.247Z,26.59
2019-02-05T09:42:07.200Z,26.98
2019-02-05T09:43:07.152Z,26.89
2019-02-05T09:44:07.106Z,27.17
2019-02-05T09:45:07.061Z,27.08
2019-02-05T09:46:07.011Z,26.98
2019-02-05T09:47:07.013Z,27.56
2019-02-05T09:48:06.967Z,27.08
2019-02-05T09:49:06.866Z,27.08
2019-02-05T09:50:06.821Z,27.08
2019-02-05T09:51:06.773Z,27.17
2019-02-05T09:52:06.725Z,27.08
2019-02-05T09:53:06.677Z,26.98
2019-02-05T09:54:06.632Z,26.98
2019-02-05T09:55:06.582Z,26.89
2019-02-05T09:56:06.538Z,27.08
2019-02-05T09:57:06.495Z,27.27
2019-02-05T09:58:06.440Z,27.46
2019-02-05T09:59:06.394Z,27.37
2019-02-05T10:00:06.346Z,27.37
2019-02-05T10:01:06.297Z,27.46
2019-02-05T10:02:06.249Z,27.46
2019-02-05T10:03:06.203Z,27.46
2019-02-05T10:04:06.155Z,27.37
2019-02-05T10:05:06.111Z,27.46
2019-02-05T10:06:06.060Z,27.27
2019-02-05T10:07:06.012Z,27.56
2019-02-05T10:08:05.966Z,27.75
2019-02-05T10:09:05.917Z,27.46
2019-02-05T10:10:05.869Z,27.56
2019-02-05T10:11:05.821Z,27.26
2019-02-05T10:12:05.775Z,27.75
2019-02-05T10:13:05.727Z,27.37
2019-02-05T10:14:05.679Z,27.55
2019-02-05T10:15:05.633Z,27.66
2019-02-05T10:16:05.583Z,27.75
2019-02-05T10:17:05.536Z,28.13
2019-02-05T10:18:05.489Z,28.23
2019-02-05T10:19:05.442Z,28.14
2019-02-05T10:20:05.394Z,28.14
2019-02-05T10:21:05.345Z,28.04
2019-02-05T10:22:05.298Z,28.31
2019-02-05T10:23:05.250Z,28.13
2019-02-05T10:24:05.202Z,28.31
2019-02-05T10:25:05.158Z,28.51
2019-02-05T10:26:05.109Z,28.51
2019-02-05T10:27:05.062Z,28.70
2019-02-05T10:28:05.012Z,28.51
2019-02-05T10:29:05.013Z,28.70
2019-02-05T10:30:04.932Z,28.81
2019-02-05T10:31:04.870Z,28.99
2019-02-05T10:32:04.821Z,28.89
2019-02-05T10:33:04.775Z,28.70
2019-02-05T10:34:04.726Z,28.72
2019-02-05T10:35:04.695Z,28.80
2019-02-05T10:36:04.631Z,28.61
2019-02-05T10:37:04.584Z,28.70
2019-02-05T10:38:04.537Z,28.70
2019-02-05T10:39:04.489Z,28.51
2019-02-05T10:40:04.447Z,28.61
2019-02-05T10:41:04.393Z,29.08
2019-02-05T10:42:04.345Z,29.08
2019-02-05T10:43:04.298Z,28.99
2019-02-05T10:44:04.251Z,28.89
2019-02-05T10:45:04.202Z,29.28
2019-02-05T10:46:04.155Z,29.28
2019-02-05T10:47:04.107Z,29.47
2019-02-05T10:48:04.064Z,29.76
2019-02-05T10:49:04.012Z,29.66
2019-02-05T10:50:04.014Z,29.86
2019-02-05T10:51:03.967Z,29.57
2019-02-05T10:52:03.871Z,29.95
2019-02-05T10:53:03.923Z,29.95
2019-02-05T10:54:03.774Z,29.95
2019-02-05T10:55:03.732Z,29.76
2019-02-05T10:56:03.679Z,29.95
2019-02-05T10:57:03.631Z,30.05
2019-02-05T10:58:03.583Z,29.86
2019-02-05T10:59:03.536Z,29.95
2019-02-05T11:00:09.122Z,29.86
2019-02-05T11:01:03.440Z,29.86
2019-02-05T11:06:22.916Z,29.76
2019-02-05T11:07:37.052Z,29.76
2019-02-05T11:16:03.507Z,31.01
2019-02-05T11:17:03.194Z,30.63
2019-02-05T11:18:03.719Z,31.01
2019-02-05T11:19:03.924Z,30.82
2019-02-05T11:20:03.708Z,30.73
2019-02-05T11:21:15.926Z,30.73
2019-02-05T11:24:33.857Z,30.82
2019-02-05T11:25:33.812Z,31.11
2019-02-05T11:26:36.657Z,31.40
2019-02-05T11:27:33.715Z,31.49
2019-02-05T11:28:33.666Z,31.69
2019-02-05T11:29:33.619Z,31.69
2019-02-05T11:30:33.570Z,31.78
2019-02-05T11:31:33.522Z,31.59
2019-02-05T11:32:33.475Z,31.69
2019-02-05T11:33:33.427Z,31.88
2019-02-05T11:34:33.381Z,32.07
2019-02-05T11:35:33.334Z,31.78
2019-02-05T11:36:33.287Z,31.88
2019-02-05T11:37:33.237Z,31.98
2019-02-05T11:38:33.189Z,31.98
2019-02-05T11:39:33.144Z,31.78
2019-02-05T11:40:33.095Z,31.88
2019-02-05T11:41:33.047Z,31.88
2019-02-05T11:42:32.999Z,31.78
2019-02-05T11:43:32.950Z,31.88
2019-02-05T11:44:32.954Z,31.78
2019-02-05T11:45:32.855Z,32.17
2019-02-05T11:46:32.808Z,31.88
2019-02-05T11:47:32.760Z,32.17
2019-02-05T11:48:32.713Z,32.17
2019-02-05T11:49:32.675Z,31.98
2019-02-05T11:50:32.618Z,31.88
2019-02-05T11:51:32.569Z,31.96
2019-02-05T11:52:32.521Z,31.96
2019-02-05T11:53:32.473Z,32.07
2019-02-05T11:54:32.425Z,32.25
2019-02-05T11:55:32.377Z,32.15
2019-02-05T11:56:32.330Z,32.25
2019-02-05T11:57:32.282Z,32.25
2019-02-05T11:58:32.240Z,32.26
2019-02-05T11:59:32.187Z,32.44
2019-02-05T12:00:33.166Z,32.34
2019-02-05T12:01:38.887Z,32.34
2019-02-05T12:02:32.043Z,32.54
2019-02-05T12:03:31.996Z,32.44
2019-02-05T12:04:31.948Z,32.54
2019-02-05T12:05:31.900Z,32.25
2019-02-05T12:06:31.853Z,32.34
2019-02-05T12:07:31.805Z,32.25
2019-02-05T12:08:31.757Z,32.25
2019-02-05T12:09:31.709Z,32.34
2019-02-05T12:10:31.688Z,32.34
2019-02-05T12:11:31.615Z,32.25
2019-02-05T12:12:31.566Z,32.25
2019-02-05T12:13:31.519Z,31.96
2019-02-05T12:14:31.469Z,32.06
2019-02-05T12:15:31.423Z,32.06
2019-02-05T12:16:31.374Z,32.06
2019-02-05T12:17:31.326Z,31.96
2019-02-05T12:18:31.278Z,32.06
2019-02-05T12:19:31.230Z,32.15
2019-02-05T12:20:31.183Z,31.96
2019-02-05T12:21:31.135Z,31.96
2019-02-05T12:22:31.087Z,31.96
2019-02-05T12:23:31.040Z,31.96
2019-02-05T12:24:30.993Z,32.06
2019-02-05T12:25:30.994Z,32.06
2019-02-05T12:26:30.897Z,31.96
2019-02-05T12:27:30.848Z,32.06
2019-02-05T12:28:30.824Z,32.15
2019-02-05T12:29:30.753Z,31.96
2019-02-05T12:30:30.723Z,32.15
2019-02-05T12:31:30.657Z,31.87
2019-02-05T12:32:30.609Z,32.06
2019-02-05T12:33:30.560Z,32.06
2019-02-05T12:34:30.515Z,32.25
2019-02-05T12:35:30.466Z,32.25
2019-02-05T12:36:30.417Z,32.54
2019-02-05T12:37:30.370Z,32.44
2019-02-05T12:38:30.323Z,32.54
2019-02-05T12:39:30.275Z,32.73
2019-02-05T12:40:30.226Z,32.64
2019-02-05T12:41:30.179Z,32.54
2019-02-05T12:42:30.132Z,32.54
2019-02-05T12:43:30.083Z,32.64
2019-02-05T12:44:30.039Z,32.92
2019-02-05T12:45:30.038Z,32.92
2019-02-05T12:46:29.990Z,32.82
2019-02-05T12:47:29.893Z,32.82
2019-02-05T12:48:29.843Z,33.12
2019-02-05T12:49:29.796Z,33.12
2019-02-05T12:50:29.748Z,33.40
2019-02-05T12:51:29.704Z,32.92
2019-02-05T12:52:29.652Z,32.92
2019-02-05T12:53:29.606Z,33.12
2019-02-05T12:54:29.556Z,32.92
2019-02-05T12:55:29.509Z,32.92
2019-02-05T12:56:29.473Z,33.02
2019-02-05T12:57:29.412Z,33.21
2019-02-05T12:58:29.365Z,33.12
2019-02-05T12:59:29.318Z,33.21
2019-02-05T13:00:29.271Z,33.12
2019-02-05T13:01:29.223Z,33.21
2019-02-05T13:02:29.176Z,33.12
2019-02-05T13:03:29.129Z,33.12
2019-02-05T13:04:29.080Z,33.02
2019-02-05T13:05:29.030Z,33.31
2019-02-05T13:06:28.983Z,32.92